createdAt,value
2022-08-17T00:01:26.265Z,25.67
2022-08-17T00:06:31.608Z,24.17
2022-08-17T00:11:38.797Z,24.75
2022-08-17T00:16:57.314Z,26.84
2022-08-17T00:22:31.323Z,26.57
2022-08-17T00:27:26.223Z,24.55
2022-08-17T00:33:12.321Z,24.75
2022-08-17T00:37:52.086Z,26.95
2022-08-17T00:42:54.783Z,26.40
2022-08-17T00:47:57.476Z,24.70
2022-08-17T00:53:00.302Z,25.06
2022-08-17T01:04:46.276Z,25.44
2022-08-17T01:09:51.367Z,24.11
2022-08-17T01:14:54.035Z,24.71
2022-08-17T01:19:56.871Z,26.82
2022-08-17T01:25:02.130Z,26.78
2022-08-17T01:30:56.731Z,25.02
2022-08-17T01:35:32.356Z,25.41
2022-08-17T01:40:43.238Z,27.17
2022-08-17T01:45:49.190Z,25.67
2022-08-17T01:51:07.599Z,24.11
2022-08-17T01:56:14.488Z,24.66
2022-08-17T02:01:19.976Z,26.85
2022-08-17T02:06:27.525Z,26.76
2022-08-17T02:11:33.995Z,25.08
2022-08-17T02:16:40.333Z,25.31
2022-08-17T02:21:46.320Z,27.16
2022-08-17T02:26:49.085Z,25.90
2022-08-17T02:31:51.766Z,24.42
2022-08-17T02:36:54.947Z,24.97
2022-08-17T02:42:02.311Z,27.07
2022-08-17T02:47:05.282Z,26.10
2022-08-17T02:52:08.180Z,24.64
2022-08-17T02:57:11.219Z,25.15
2022-08-17T03:02:13.921Z,27.17
2022-08-17T03:07:16.779Z,26.16
2022-08-17T03:12:19.508Z,24.70
2022-08-17T03:17:22.310Z,25.28
2022-08-17T03:22:36.623Z,27.14
2022-08-17T03:27:42.053Z,25.66
2022-08-17T03:32:48.922Z,24.27
2022-08-17T03:37:56.932Z,25.05
2022-08-17T03:43:09.210Z,26.96
2022-08-17T03:48:30.876Z,25.73
2022-08-17T03:53:52.577Z,24.25
2022-08-17T03:58:55.259Z,25.91
2022-08-17T04:03:57.941Z,26.47
2022-08-17T04:09:00.670Z,24.67
2022-08-17T04:14:05.036Z,25.16
2022-08-17T04:19:07.776Z,26.83
2022-08-17T04:24:10.472Z,26.05
2022-08-17T04:29:13.183Z,24.37
2022-08-17T04:34:19.666Z,26.05
2022-08-17T04:39:25.132Z,26.76
2022-08-17T04:44:37.535Z,25.17
2022-08-17T04:49:40.943Z,25.67
2022-08-17T04:54:43.686Z,27.49
2022-08-17T04:59:46.416Z,26.23
2022-08-17T05:04:50.054Z,25.03
2022-08-17T05:09:52.804Z,26.39
2022-08-17T05:14:55.488Z,27.37
2022-08-17T05:19:58.145Z,25.88
2022-08-17T05:25:01.901Z,26.25
2022-08-17T05:30:06.546Z,28.09
2022-08-17T05:35:09.578Z,26.83
2022-08-17T05:40:13.146Z,25.73
2022-08-17T05:45:23.636Z,26.62
2022-08-17T05:51:05.260Z,28.48
2022-08-17T05:56:30.156Z,27.04
2022-08-17T06:02:03.056Z,26.13
2022-08-17T06:07:25.843Z,27.33
2022-08-17T06:12:31.302Z,28.95
2022-08-17T06:17:35.657Z,27.77
2022-08-17T06:22:46.166Z,27.01
2022-08-17T06:28:14.753Z,28.01
2022-08-17T06:33:22.731Z,29.21
2022-08-17T06:38:53.354Z,27.87
2022-08-17T06:44:43.336Z,27.17
2022-08-17T06:49:55.249Z,28.59
2022-08-17T06:55:20.266Z,29.54
2022-08-17T07:00:28.409Z,28.38
2022-08-17T07:05:38.768Z,27.65
2022-08-17T07:10:51.218Z,27.30
2022-08-17T07:16:17.542Z,26.98
2022-08-17T07:21:47.177Z,28.70
2022-08-17T07:27:23.586Z,29.73
2022-08-17T07:32:37.021Z,28.49
2022-08-17T07:37:53.298Z,27.92
2022-08-17T07:43:05.797Z,27.64
2022-08-17T07:48:21.464Z,27.50
2022-08-17T07:53:26.262Z,28.88
2022-08-17T07:58:28.970Z,30.43
2022-08-17T08:03:34.090Z,29.33
2022-08-17T08:08:50.599Z,28.60
2022-08-17T08:13:53.378Z,28.15
2022-08-17T08:19:02.950Z,27.89
2022-08-17T08:24:24.248Z,27.84
2022-08-17T08:30:04.941Z,27.91
2022-08-17T08:35:17.533Z,27.96
2022-08-17T08:40:32.314Z,28.13
2022-08-17T08:45:53.174Z,28.26
2022-08-17T08:51:21.855Z,28.38
2022-08-17T08:56:35.475Z,28.36
2022-08-17T09:02:11.743Z,28.44
2022-08-17T09:07:57.274Z,28.71
2022-08-17T09:13:10.980Z,28.86
2022-08-17T09:19:01.090Z,28.70
2022-08-17T09:24:13.138Z,28.55
2022-08-17T09:29:17.854Z,28.48
2022-08-17T09:34:33.334Z,28.64
2022-08-17T09:39:50.379Z,28.83
2022-08-17T09:45:22.009Z,29.18
2022-08-17T09:50:55.375Z,29.38
2022-08-17T09:56:09.527Z,29.53
2022-08-17T10:01:48.229Z,29.53
2022-08-17T10:07:19.224Z,29.55
2022-08-17T10:12:47.004Z,29.45
2022-08-17T10:18:31.894Z,29.44
2022-08-17T10:23:54.773Z,29.70
2022-08-17T10:28:58.346Z,29.96
2022-08-17T10:34:19.443Z,30.03
2022-08-17T10:39:50.566Z,30.04
2022-08-17T10:45:05.692Z,30.17
2022-08-17T10:50:46.440Z,30.26
2022-08-17T10:56:22.665Z,30.15
2022-08-17T11:01:58.088Z,30.05
2022-08-17T11:07:19.286Z,30.33
2022-08-17T11:12:36.883Z,30.72
2022-08-17T11:18:05.713Z,31.15
2022-08-17T11:23:14.728Z,31.53
2022-08-17T11:28:24.256Z,31.63
2022-08-17T11:33:29.453Z,31.77
2022-08-17T11:38:42.069Z,31.70
2022-08-17T11:44:10.603Z,31.38
2022-08-17T11:49:44.007Z,31.03
2022-08-17T11:54:48.638Z,30.86
2022-08-17T11:59:55.693Z,31.21
2022-08-17T12:05:27.301Z,31.58
2022-08-17T12:10:34.327Z,31.52
2022-08-17T12:15:49.303Z,31.24
2022-08-17T12:21:13.509Z,31.13
2022-08-17T12:26:27.211Z,31.18
2022-08-17T12:31:51.919Z,31.25
2022-08-17T12:37:04.959Z,31.54
2022-08-17T12:42:23.946Z,31.83
2022-08-17T12:47:30.059Z,32.32
2022-08-17T12:52:39.953Z,32.78
2022-08-17T12:57:47.573Z,33.07
2022-08-17T13:03:15.763Z,32.91
2022-08-17T13:08:23.569Z,32.55
2022-08-17T13:13:34.988Z,32.23
2022-08-17T13:18:40.666Z,32.00
2022-08-17T13:24:05.779Z,31.80
2022-08-17T13:29:19.413Z,31.75
2022-08-17T13:34:28.002Z,32.02
2022-08-17T13:39:41.398Z,32.20
2022-08-17T13:44:44.550Z,32.49
2022-08-17T13:49:49.437Z,32.93
2022-08-17T13:54:52.663Z,33.30
2022-08-17T14:00:15.937Z,33.24
2022-08-17T14:05:18.735Z,32.74
2022-08-17T14:10:21.828Z,32.28
2022-08-17T14:15:55.832Z,31.89
2022-08-17T14:20:48.754Z,31.56
2022-08-17T14:25:51.470Z,31.34
2022-08-17T14:30:54.407Z,31.63
2022-08-17T14:35:57.719Z,32.41
2022-08-17T14:41:00.440Z,33.32
2022-08-17T14:46:03.146Z,34.02
2022-08-17T14:51:06.536Z,34.48
2022-08-17T14:56:09.231Z,34.75
2022-08-17T15:01:13.723Z,34.67
2022-08-17T15:06:17.020Z,34.58
2022-08-17T15:11:19.806Z,34.72
2022-08-17T15:16:22.776Z,34.95
2022-08-17T15:21:25.797Z,34.74
2022-08-17T15:26:28.666Z,34.20
2022-08-17T15:31:32.139Z,33.70
2022-08-17T15:36:35.871Z,33.29
2022-08-17T15:41:38.639Z,32.96
2022-08-17T15:46:41.504Z,32.72
2022-08-17T15:51:44.346Z,32.59
2022-08-17T15:56:47.200Z,32.73
2022-08-17T16:03:14.515Z,33.77
2022-08-17T16:07:14.517Z,34.98
2022-08-17T16:12:20.737Z,35.88
2022-08-17T16:17:38.866Z,36.40
2022-08-17T16:22:46.931Z,36.25
2022-08-17T16:27:54.565Z,35.39
2022-08-17T16:33:00.436Z,34.27
2022-08-17T16:38:03.501Z,33.31
2022-08-17T16:43:10.693Z,32.53
2022-08-17T16:48:15.453Z,31.83
2022-08-17T16:53:19.661Z,31.17
2022-08-17T16:58:22.719Z,30.63
2022-08-17T17:03:27.765Z,30.14
2022-08-17T17:08:49.163Z,29.67
2022-08-17T17:13:58.534Z,29.21
2022-08-17T17:19:12.501Z,28.84
2022-08-17T17:24:50.090Z,28.51
2022-08-17T17:30:13.251Z,28.19
2022-08-17T17:35:25.304Z,27.90
2022-08-17T17:40:50.226Z,27.63
2022-08-17T17:46:07.706Z,27.36
2022-08-17T17:51:45.631Z,27.12
2022-08-17T17:57:09.697Z,26.88
2022-08-17T18:02:53.717Z,26.64
2022-08-17T18:08:10.619Z,26.39
2022-08-17T18:13:27.259Z,26.17
2022-08-17T18:18:38.679Z,25.93
2022-08-17T18:23:51.575Z,25.73
2022-08-17T18:28:54.323Z,25.52
2022-08-17T18:34:46.114Z,25.36
2022-08-17T18:39:46.265Z,25.20
2022-08-17T18:44:54.329Z,25.11
2022-08-17T18:50:19.279Z,25.02
2022-08-17T18:55:24.847Z,24.91
2022-08-17T19:00:30.666Z,24.79
2022-08-17T19:06:07.767Z,24.66
2022-08-17T19:11:33.938Z,24.52
2022-08-17T19:16:51.765Z,24.38
2022-08-17T19:21:59.065Z,24.25
2022-08-17T19:27:19.943Z,24.10
2022-08-17T19:32:29.165Z,23.94
2022-08-17T19:38:12.989Z,23.77
2022-08-17T19:43:48.122Z,23.56
2022-08-17T19:48:55.019Z,23.36
2022-08-17T19:54:24.807Z,23.18
2022-08-17T20:00:02.377Z,24.66
2022-08-17T20:05:11.672Z,26.40
2022-08-17T20:10:27.034Z,25.15
2022-08-17T20:15:34.054Z,24.51
2022-08-17T20:21:01.391Z,24.17
2022-08-17T20:26:34.706Z,23.86
2022-08-17T20:31:44.535Z,23.58
2022-08-17T20:37:10.514Z,23.30
2022-08-17T20:42:22.135Z,24.63
2022-08-17T20:47:32.056Z,27.19
2022-08-17T20:52:41.387Z,26.76
2022-08-17T20:57:46.416Z,25.23
2022-08-17T21:03:10.262Z,24.32
2022-08-17T21:08:16.650Z,23.62
2022-08-17T21:13:25.855Z,24.46
2022-08-17T21:18:28.444Z,26.91
2022-08-17T21:23:52.633Z,26.48
2022-08-17T21:29:31.424Z,24.80
2022-08-17T21:34:35.511Z,23.86
2022-08-17T21:39:41.125Z,24.64
2022-08-17T21:44:50.436Z,26.90
2022-08-17T21:49:55.303Z,25.82
2022-08-17T21:55:02.552Z,24.35
2022-08-17T22:00:15.992Z,23.37
2022-08-17T22:05:29.997Z,22.58
2022-08-17T22:10:42.794Z,23.64
2022-08-17T22:16:15.404Z,26.10
2022-08-17T22:21:30.036Z,25.86
2022-08-17T22:26:59.805Z,24.01
2022-08-17T22:32:02.618Z,22.83
2022-08-17T22:37:29.108Z,23.65
2022-08-17T22:42:32.300Z,26.07
2022-08-17T22:47:39.467Z,26.00
2022-08-17T22:53:04.502Z,24.25
2022-08-17T22:58:31.258Z,23.17
2022-08-17T23:03:53.554Z,24.84
2022-08-17T23:08:57.786Z,25.75
2022-08-17T23:14:00.582Z,23.97
2022-08-17T23:19:03.283Z,24.24
2022-08-17T23:24:08.930Z,26.09
2022-08-17T23:29:11.694Z,24.60
2022-08-17T23:34:15.360Z,23.27
2022-08-17T23:39:24.384Z,23.90
2022-08-17T23:44:28.933Z,25.97
2022-08-17T23:49:32.607Z,24.64
2022-08-17T23:54:41.628Z,23.29
2022-08-17T23:59:44.632Z,24.68
